Time;durP1;ratioP1;P1;durP2;ratioP2;P2;SDS_P1;SDS_P2;PMS_P1;PMS_P2;Temp;Humidity;BMP_temperature;BMP_pressure;BME280_temperature;BME280_humidity;BME280_pressure;Samples;Min_cycle;Max_cycle;Signal;HPM_P1;HPM_P2
2022/07/30 00:00:18;;;;;;;8.45;3.83;;;23.90;99.90;;;;;;6178292;23;20040;-73
2022/07/30 00:02:44;;;;;;;7.07;3.80;;;23.90;99.90;;;;;;6180915;23;20013;-73
2022/07/30 00:05:10;;;;;;;9.55;3.95;;;23.80;99.90;;;;;;6179445;23;20028;-73
2022/07/30 00:07:36;;;;;;;9.95;4.43;;;23.80;99.90;;;;;;6182096;23;20361;-73
2022/07/30 00:10:03;;;;;;;10.15;3.60;;;23.80;99.90;;;;;;6178697;23;20017;-74
2022/07/30 00:12:31;;;;;;;7.90;4.28;;;23.90;99.90;;;;;;6182012;23;20071;-74
2022/07/30 00:14:56;;;;;;;7.70;3.67;;;23.80;99.90;;;;;;6154987;23;20017;-73
2022/07/30 00:17:22;;;;;;;10.32;3.75;;;23.80;99.90;;;;;;6154215;23;20357;-73
2022/07/30 00:19:48;;;;;;;6.80;3.60;;;23.80;99.90;;;;;;6154892;23;20013;-74
2022/07/30 00:22:14;;;;;;;7.53;3.63;;;23.80;99.90;;;;;;6179870;23;20051;-74
2022/07/30 00:24:39;;;;;;;9.00;3.97;;;23.80;99.90;;;;;;6181340;23;20012;-73
2022/07/30 00:27:05;;;;;;;7.53;4.10;;;23.90;99.90;;;;;;6179127;23;20009;-74
2022/07/30 00:29:31;;;;;;;9.02;4.35;;;23.80;99.90;;;;;;6181308;23;20035;-73
2022/07/30 00:31:57;;;;;;;8.15;4.57;;;23.90;99.90;;;;;;6180865;23;20012;-73
2022/07/30 00:34:22;;;;;;;9.30;4.18;;;23.90;99.90;;;;;;6179371;23;20391;-73
2022/07/30 00:36:48;;;;;;;9.45;3.97;;;23.80;99.90;;;;;;6180663;23;20032;-74
2022/07/30 00:39:14;;;;;;;6.28;3.95;;;23.90;99.90;;;;;;6180056;23;20025;-74
2022/07/30 00:42:02;;;;;;;8.57;4.05;;;23.80;99.90;;;;;;6181689;23;20390;-72
2022/07/30 00:44:29;;;;;;;8.80;4.15;;;23.80;99.90;;;;;;6181509;23;20032;-71
2022/07/30 00:46:55;;;;;;;6.43;3.92;;;23.80;99.90;;;;;;6181198;23;20156;-72
2022/07/30 00:49:21;;;;;;;9.13;4.40;;;23.90;99.90;;;;;;6154699;23;20033;-73
2022/07/30 00:51:48;;;;;;;8.50;4.03;;;23.80;99.90;;;;;;6155550;23;20016;-72
2022/07/30 00:54:14;;;;;;;11.02;4.32;;;23.80;99.90;;;;;;6153265;23;20017;-73
2022/07/30 00:56:41;;;;;;;7.72;4.07;;;23.70;99.90;;;;;;6181227;23;20021;-73
2022/07/30 00:59:07;;;;;;;11.18;4.20;;;23.70;99.90;;;;;;6179777;23;20032;-72
2022/07/30 01:01:33;;;;;;;7.07;4.43;;;23.70;99.90;;;;;;6182828;23;20067;-73
2022/07/30 01:04:00;;;;;;;10.77;4.55;;;23.70;99.90;;;;;;6181994;23;20021;-71
2022/07/30 01:06:26;;;;;;;9.18;4.80;;;23.70;99.90;;;;;;6154999;23;20085;-72
2022/07/30 01:08:53;;;;;;;11.15;4.60;;;23.70;99.90;;;;;;6155936;23;20008;-72
2022/07/30 01:11:19;;;;;;;10.40;4.38;;;23.70;99.90;;;;;;6181666;23;20017;-72
2022/07/30 01:13:48;;;;;;;10.55;5.20;;;23.70;99.90;;;;;;6181896;23;20017;-71
2022/07/30 01:16:14;;;;;;;8.73;5.32;;;23.70;99.90;;;;;;6181486;23;20450;-71
2022/07/30 01:21:35;;;;;;;8.00;5.25;;;23.60;99.90;;;;;;6193687;23;20020;-72
2022/07/30 01:24:40;;;;;;;10.75;4.80;;;23.60;99.90;;;;;;6183217;23;20059;-72
2022/07/30 01:27:09;;;;;;;8.43;5.15;;;23.60;99.90;;;;;;6179636;23;20422;-72
2022/07/30 01:29:37;;;;;;;10.07;6.00;;;23.50;99.90;;;;;;6182739;23;20075;-73
2022/07/30 01:32:06;;;;;;;13.93;5.97;;;23.50;99.90;;;;;;6155380;23;20337;-72
2022/07/30 01:34:34;;;;;;;12.10;5.90;;;23.50;99.90;;;;;;6183053;23;20020;-72
2022/07/30 01:37:02;;;;;;;14.75;5.95;;;23.50;99.90;;;;;;6131918;23;20061;-72
2022/07/30 01:39:29;;;;;;;11.05;5.72;;;23.50;99.90;;;;;;6155199;23;20433;-73
2022/07/30 01:41:56;;;;;;;9.02;5.50;;;23.50;99.90;;;;;;6134302;23;20767;-71
2022/07/30 01:44:25;;;;;;;12.80;5.93;;;23.60;99.90;;;;;;6154830;23;20091;-72
2022/07/30 01:46:54;;;;;;;8.07;5.15;;;23.60;99.90;;;;;;6155800;23;20020;-72
2022/07/30 01:49:22;;;;;;;11.20;5.72;;;23.70;99.90;;;;;;6178990;23;20083;-72
2022/07/30 01:51:50;;;;;;;10.48;5.40;;;23.60;99.90;;;;;;6181864;23;20009;-72
2022/07/30 01:54:18;;;;;;;11.68;5.20;;;23.60;99.90;;;;;;6179424;23;20017;-71
2022/07/30 01:56:48;;;;;;;10.50;4.85;;;23.50;99.90;;;;;;6181962;23;20009;-72
2022/07/30 01:59:18;;;;;;;10.85;4.82;;;23.50;99.90;;;;;;6179913;23;20032;-71
2022/07/30 02:01:44;;;;;;;5.93;4.22;;;23.50;99.90;;;;;;6180723;23;20001;-72
2022/07/30 02:04:10;;;;;;;10.02;4.20;;;23.50;99.90;;;;;;6180114;23;20017;-72
2022/07/30 02:06:45;;;;;;;6.75;3.85;;;23.40;99.90;;;;;;6182550;23;20028;-72
2022/07/30 02:09:14;;;;;;;12.57;3.58;;;23.40;99.90;;;;;;6181310;23;20133;-71
2022/07/30 02:14:37;;;;;;;10.20;4.10;;;23.50;99.90;;;;;;6180316;23;20488;-72
2022/07/30 02:17:06;;;;;;;6.20;3.65;;;23.50;99.90;;;;;;6180856;23;20009;-72
2022/07/30 02:19:38;;;;;;;8.13;3.83;;;23.50;99.90;;;;;;6182494;23;20398;-72
2022/07/30 02:22:07;;;;;;;8.47;3.20;;;23.60;99.90;;;;;;6180638;23;20012;-72
2022/07/30 02:24:37;;;;;;;7.95;3.70;;;23.60;99.90;;;;;;6154589;23;20260;-72
2022/07/30 02:27:13;;;;;;;6.97;3.28;;;23.60;99.90;;;;;;6139916;23;20008;-71
2022/07/30 02:29:41;;;;;;;8.77;3.45;;;23.50;99.90;;;;;;6180821;23;20519;-72
2022/07/30 02:32:15;;;;;;;7.60;3.80;;;23.50;99.90;;;;;;6154475;23;20015;-72
2022/07/30 02:34:43;;;;;;;7.50;3.30;;;23.40;99.90;;;;;;6155674;23;20392;-72
2022/07/30 02:37:13;;;;;;;5.55;3.30;;;23.40;99.90;;;;;;6129494;23;20005;-72
2022/07/30 02:39:41;;;;;;;8.30;3.60;;;23.40;99.90;;;;;;6154463;23;20047;-72
2022/07/30 02:42:09;;;;;;;8.43;3.92;;;23.40;99.90;;;;;;6154600;23;20024;-73
2022/07/30 02:44:37;;;;;;;7.28;3.70;;;23.40;99.90;;;;;;6133123;23;20033;-72
2022/07/30 02:47:04;;;;;;;6.57;3.25;;;23.40;99.90;;;;;;6154465;23;20012;-72
2022/07/30 02:49:34;;;;;;;8.18;3.65;;;23.40;99.90;;;;;;6182336;23;20017;-72
2022/07/30 02:52:01;;;;;;;6.68;3.63;;;23.40;99.90;;;;;;6155350;23;20019;-71
2022/07/30 02:54:31;;;;;;;9.50;3.75;;;23.40;99.90;;;;;;6166732;23;20040;-72
2022/07/30 02:56:59;;;;;;;6.53;3.42;;;23.50;99.90;;;;;;6181790;23;20024;-72
2022/07/30 02:59:28;;;;;;;7.63;3.47;;;23.60;99.90;;;;;;6180045;23;20639;-72
2022/07/30 03:01:56;;;;;;;5.18;3.20;;;23.60;99.90;;;;;;6154516;23;20381;-71
2022/07/30 03:04:22;;;;;;;10.02;3.38;;;23.60;99.90;;;;;;6179160;23;20021;-72
2022/07/30 03:06:49;;;;;;;5.38;2.80;;;23.70;99.90;;;;;;6153871;23;20020;-72
2022/07/30 03:09:17;;;;;;;7.15;3.38;;;23.70;99.90;;;;;;6152134;23;20032;-72
2022/07/30 03:11:44;;;;;;;8.05;3.28;;;23.80;99.90;;;;;;6154559;23;20016;-73
2022/07/30 03:14:12;;;;;;;7.53;3.60;;;23.80;99.90;;;;;;6179076;23;20037;-71
2022/07/30 03:16:42;;;;;;;5.10;3.05;;;23.90;99.90;;;;;;6154456;23;20005;-72
2022/07/30 03:19:10;;;;;;;7.22;3.25;;;23.90;99.90;;;;;;6153077;23;20012;-73
2022/07/30 03:21:37;;;;;;;9.70;3.80;;;24.00;99.90;;;;;;6180238;23;20013;-72
2022/07/30 03:24:06;;;;;;;7.72;3.20;;;24.00;99.90;;;;;;6152953;23;20508;-70
2022/07/30 03:26:35;;;;;;;5.78;3.63;;;24.10;99.90;;;;;;6154298;23;20009;-72
2022/07/30 03:29:03;;;;;;;5.93;3.05;;;24.10;99.90;;;;;;6180093;23;20063;-73
2022/07/30 03:31:32;;;;;;;10.23;3.60;;;24.10;99.90;;;;;;6153356;23;20440;-74
2022/07/30 03:33:58;;;;;;;6.28;3.20;;;24.10;99.90;;;;;;6153674;23;20005;-72
2022/07/30 03:36:25;;;;;;;7.13;3.22;;;24.10;99.90;;;;;;6152991;23;20096;-71
2022/07/30 03:38:51;;;;;;;4.75;3.15;;;24.20;99.90;;;;;;6153292;23;20437;-71
2022/07/30 03:41:18;;;;;;;5.13;3.65;;;24.20;99.90;;;;;;6152961;23;20013;-72
2022/07/30 03:43:45;;;;;;;10.23;3.50;;;24.10;99.90;;;;;;6180708;23;20013;-72
2022/07/30 03:46:12;;;;;;;6.45;3.30;;;24.10;99.90;;;;;;6152620;23;20013;-72
2022/07/30 03:48:39;;;;;;;9.15;4.03;;;24.00;99.90;;;;;;6154327;23;20017;-72
2022/07/30 03:51:08;;;;;;;11.57;4.03;;;24.10;99.90;;;;;;6153740;23;20016;-71
2022/07/30 03:53:35;;;;;;;6.88;3.53;;;24.10;99.90;;;;;;6181005;23;20238;-71
2022/07/30 03:56:01;;;;;;;6.50;3.10;;;24.10;99.90;;;;;;6153083;23;20013;-72
2022/07/30 03:58:28;;;;;;;8.73;3.42;;;24.10;99.90;;;;;;6153180;23;20020;-72
2022/07/30 04:00:54;;;;;;;6.72;3.50;;;24.20;99.90;;;;;;6180877;23;20349;-72
2022/07/30 04:03:29;;;;;;;8.55;3.53;;;24.20;99.90;;;;;;6179291;23;20074;-72
2022/07/30 04:05:55;;;;;;;7.93;3.50;;;24.20;99.90;;;;;;6180582;23;20099;-71
2022/07/30 04:08:21;;;;;;;8.15;3.38;;;24.30;99.90;;;;;;6178604;23;20017;-72
2022/07/30 04:10:48;;;;;;;9.05;3.50;;;24.30;99.90;;;;;;6129543;23;20017;-71
2022/07/30 04:13:16;;;;;;;12.55;4.07;;;24.30;99.90;;;;;;6178682;23;20521;-72
2022/07/30 04:16:07;;;;;;;6.68;3.55;;;24.30;99.90;;;;;;6180014;23;20017;-72
2022/07/30 04:18:39;;;;;;;9.90;4.07;;;24.30;99.90;;;;;;6153199;23;20040;-71
2022/07/30 04:21:07;;;;;;;6.07;3.40;;;24.30;99.90;;;;;;6179669;23;20111;-71
2022/07/30 04:23:33;;;;;;;7.28;3.53;;;24.30;99.90;;;;;;6180651;23;20013;-71
2022/07/30 04:26:01;;;;;;;8.38;3.63;;;24.30;99.90;;;;;;6179878;23;20023;-72
2022/07/30 04:28:28;;;;;;;8.30;3.60;;;24.30;99.90;;;;;;6165707;23;20071;-71
2022/07/30 04:30:54;;;;;;;7.80;4.03;;;24.30;99.90;;;;;;6180492;23;20013;-71
2022/07/30 04:33:20;;;;;;;10.82;5.10;;;24.40;99.90;;;;;;6152992;23;20031;-72
2022/07/30 04:35:46;;;;;;;10.20;4.57;;;24.40;99.90;;;;;;6180816;23;20037;-72
2022/07/30 04:38:13;;;;;;;10.77;3.42;;;24.40;99.90;;;;;;6178693;23;20884;-71
2022/07/30 04:40:40;;;;;;;9.32;3.97;;;24.50;99.90;;;;;;6154393;23;20718;-72
2022/07/30 04:43:06;;;;;;;10.63;3.90;;;24.40;99.90;;;;;;6152346;23;20013;-72
2022/07/30 04:45:32;;;;;;;7.90;4.20;;;24.50;99.90;;;;;;6180763;23;20083;-72
2022/07/30 04:47:58;;;;;;;10.18;4.20;;;24.50;99.90;;;;;;6140494;23;20013;-72
2022/07/30 04:50:27;;;;;;;7.35;3.88;;;24.50;99.90;;;;;;6179730;23;20021;-72
2022/07/30 04:52:55;;;;;;;8.35;4.53;;;24.60;99.90;;;;;;6182506;23;20024;-72
2022/07/30 04:55:22;;;;;;;7.07;3.40;;;24.60;99.90;;;;;;6181679;23;20048;-71
2022/07/30 04:57:51;;;;;;;7.43;3.40;;;24.60;99.90;;;;;;6182526;23;20443;-72
2022/07/30 05:00:17;;;;;;;5.88;2.95;;;24.70;99.90;;;;;;6181050;23;20028;-71
2022/07/30 05:02:45;;;;;;;9.98;6.20;;;24.60;99.90;;;;;;6156933;23;20005;-73
2022/07/30 05:05:13;;;;;;;11.50;3.90;;;24.70;99.90;;;;;;6154528;23;20013;-72
2022/07/30 05:07:39;;;;;;;8.45;3.50;;;24.70;99.90;;;;;;6155659;23;20044;-72
2022/07/30 05:10:06;;;;;;;7.03;2.78;;;24.70;99.90;;;;;;6180392;23;20087;-72
2022/07/30 05:12:33;;;;;;;6.53;2.95;;;24.70;99.90;;;;;;6182259;23;20005;-72
2022/07/30 05:14:58;;;;;;;4.47;2.70;;;24.70;99.90;;;;;;6155752;23;20040;-72
2022/07/30 05:17:24;;;;;;;9.55;2.88;;;24.80;99.90;;;;;;6181341;23;20013;-72
2022/07/30 05:19:50;;;;;;;6.07;2.90;;;24.80;99.90;;;;;;6181754;23;20013;-72
2022/07/30 05:22:16;;;;;;;8.32;2.78;;;24.80;99.90;;;;;;6181096;23;20017;-73
2022/07/30 05:24:42;;;;;;;8.70;2.63;;;24.80;99.90;;;;;;6182593;23;20476;-72
2022/07/30 05:27:07;;;;;;;5.95;3.10;;;24.90;99.90;;;;;;6186550;23;20040;-72
2022/07/30 05:29:33;;;;;;;5.25;2.85;;;24.90;99.90;;;;;;6155114;23;20017;-72
2022/07/30 05:32:00;;;;;;;5.80;3.00;;;25.00;99.90;;;;;;6182127;23;20016;-71
2022/07/30 05:34:25;;;;;;;6.38;3.22;;;25.00;99.90;;;;;;6154162;23;20005;-73
2022/07/30 05:36:51;;;;;;;7.32;2.70;;;25.00;99.90;;;;;;6160265;23;20009;-72
2022/07/30 05:39:18;;;;;;;6.07;2.60;;;25.00;99.90;;;;;;6155352;23;20353;-72
2022/07/30 05:41:44;;;;;;;7.18;2.88;;;25.00;99.90;;;;;;6181641;23;20016;-72
2022/07/30 05:44:10;;;;;;;6.35;2.55;;;25.00;99.90;;;;;;6153793;23;20372;-73
2022/07/30 05:46:36;;;;;;;4.53;2.90;;;25.00;99.90;;;;;;6130927;23;20100;-72
2022/07/30 05:49:02;;;;;;;8.13;3.13;;;25.10;99.90;;;;;;6155349;23;20021;-72
2022/07/30 05:51:28;;;;;;;7.10;2.88;;;25.10;99.90;;;;;;6132323;23;20020;-73
2022/07/30 05:53:53;;;;;;;5.82;3.00;;;25.20;99.90;;;;;;6156464;23;20013;-72
2022/07/30 05:56:19;;;;;;;6.13;2.70;;;25.30;99.90;;;;;;6194029;23;20024;-72
2022/07/30 05:58:46;;;;;;;5.35;2.58;;;25.30;99.90;;;;;;6181769;23;20074;-72
2022/07/30 06:01:11;;;;;;;7.07;2.83;;;25.40;99.90;;;;;;6153625;23;20040;-71
2022/07/30 06:03:37;;;;;;;5.95;2.50;;;25.40;99.90;;;;;;6155117;23;20017;-72
2022/07/30 06:06:04;;;;;;;5.15;2.47;;;25.40;99.90;;;;;;6153511;23;20049;-71
2022/07/30 06:08:30;;;;;;;5.53;2.55;;;25.50;99.90;;;;;;6181582;23;20024;-72
2022/07/30 06:10:55;;;;;;;8.68;2.40;;;25.50;99.90;;;;;;6153271;23;20025;-73
2022/07/30 06:13:21;;;;;;;5.25;3.00;;;25.60;99.90;;;;;;6180356;23;20040;-72
2022/07/30 06:15:47;;;;;;;4.93;2.92;;;25.60;99.90;;;;;;6180824;23;20329;-71
2022/07/30 06:18:13;;;;;;;7.15;2.63;;;25.60;99.90;;;;;;6179841;23;20071;-73
2022/07/30 06:20:38;;;;;;;5.82;3.03;;;25.70;99.90;;;;;;6153174;23;20019;-71
2022/07/30 06:23:04;;;;;;;5.57;2.70;;;25.70;99.90;;;;;;6151906;23;20017;-72
2022/07/30 06:25:30;;;;;;;7.85;2.35;;;25.70;99.90;;;;;;6179400;23;20048;-72
2022/07/30 06:27:56;;;;;;;6.18;2.60;;;25.70;99.90;;;;;;6179213;23;20024;-72
2022/07/30 06:30:23;;;;;;;4.40;2.10;;;25.80;99.90;;;;;;6178322;23;20185;-71
2022/07/30 06:32:48;;;;;;;11.68;2.80;;;25.80;99.90;;;;;;6153262;23;20013;-72
2022/07/30 06:35:14;;;;;;;5.68;2.47;;;25.90;99.90;;;;;;6178474;23;20035;-71
2022/07/30 06:37:41;;;;;;;4.65;2.67;;;25.90;99.90;;;;;;6153845;23;20013;-73
2022/07/30 06:40:08;;;;;;;5.63;2.08;;;26.00;99.90;;;;;;6152097;23;20033;-72
2022/07/30 06:42:34;;;;;;;5.05;2.42;;;26.00;99.90;;;;;;6179676;23;20081;-72
2022/07/30 06:44:59;;;;;;;4.30;2.38;;;26.00;99.90;;;;;;6179899;23;20036;-72
2022/07/30 06:47:27;;;;;;;3.90;2.30;;;26.00;99.90;;;;;;6178641;23;20565;-71
2022/07/30 06:49:54;;;;;;;7.47;2.75;;;26.00;99.90;;;;;;6153428;23;20021;-72
2022/07/30 06:52:20;;;;;;;7.07;2.85;;;26.00;99.90;;;;;;6152007;23;20039;-72
2022/07/30 06:54:47;;;;;;;5.85;3.25;;;26.00;99.90;;;;;;6179075;23;20012;-72
2022/07/30 06:57:13;;;;;;;6.88;3.60;;;26.00;99.90;;;;;;6152015;23;20020;-72
2022/07/30 06:59:39;;;;;;;6.63;2.70;;;26.00;99.90;;;;;;6179165;23;20013;-73
2022/07/30 07:02:05;;;;;;;5.82;2.65;;;26.00;99.90;;;;;;6151684;23;20064;-73
2022/07/30 07:04:33;;;;;;;6.63;2.75;;;26.00;99.90;;;;;;6179041;23;20024;-72
2022/07/30 07:06:59;;;;;;;7.32;2.50;;;26.10;99.90;;;;;;6179151;23;20024;-73
2022/07/30 07:09:25;;;;;;;6.78;2.60;;;26.10;99.90;;;;;;6151947;23;20017;-73
2022/07/30 07:11:50;;;;;;;7.53;2.47;;;26.00;99.90;;;;;;6151957;23;20009;-71
2022/07/30 07:14:16;;;;;;;4.80;2.25;;;26.00;99.90;;;;;;6151701;23;20024;-71
2022/07/30 07:16:42;;;;;;;6.30;2.38;;;26.00;99.90;;;;;;6179023;23;20430;-72
2022/07/30 07:19:08;;;;;;;6.60;2.55;;;26.00;99.90;;;;;;6178554;23;20090;-72
2022/07/30 07:21:34;;;;;;;4.72;2.55;;;26.00;99.90;;;;;;6178979;23;20005;-72
2022/07/30 07:24:01;;;;;;;5.13;2.40;;;26.10;99.90;;;;;;6179616;23;20001;-72
2022/07/30 07:26:27;;;;;;;7.22;2.40;;;26.20;99.90;;;;;;6152288;23;20406;-73
2022/07/30 07:28:53;;;;;;;3.55;2.38;;;26.30;99.90;;;;;;6152805;23;20009;-72
2022/07/30 07:31:19;;;;;;;5.30;2.42;;;26.40;99.90;;;;;;6150876;23;20040;-71
2022/07/30 07:33:46;;;;;;;6.70;2.33;;;26.50;99.90;;;;;;6179447;23;20321;-71
2022/07/30 07:36:13;;;;;;;6.22;2.67;;;26.60;99.90;;;;;;6177972;23;20024;-71
2022/07/30 07:38:38;;;;;;;6.68;2.80;;;26.70;99.90;;;;;;6179584;23;20013;-71
2022/07/30 07:41:04;;;;;;;3.63;2.42;;;26.70;99.90;;;;;;6151901;23;20012;-72
2022/07/30 07:43:30;;;;;;;6.63;2.47;;;26.90;99.90;;;;;;6178388;23;20080;-72
2022/07/30 07:45:56;;;;;;;5.78;2.67;;;27.10;99.90;;;;;;6180136;23;20101;-73
2022/07/30 07:48:22;;;;;;;5.22;2.60;;;27.30;99.90;;;;;;6177987;23;20016;-71
2022/07/30 07:50:48;;;;;;;7.22;2.95;;;27.20;99.90;;;;;;6178787;23;20013;-72
2022/07/30 07:53:14;;;;;;;5.43;2.95;;;27.30;99.90;;;;;;6177813;23;20040;-72
2022/07/30 07:55:40;;;;;;;5.05;2.60;;;27.50;99.90;;;;;;6153004;23;20013;-74
2022/07/30 07:58:05;;;;;;;3.92;2.38;;;27.60;99.90;;;;;;6178155;23;20048;-72
2022/07/30 08:00:31;;;;;;;7.80;2.83;;;27.80;99.90;;;;;;6179407;23;20153;-73
2022/07/30 08:02:57;;;;;;;4.70;2.20;;;28.00;99.90;;;;;;6152769;23;20096;-73
2022/07/30 08:05:23;;;;;;;12.27;3.35;;;27.40;99.90;;;;;;6177613;23;20032;-71
2022/07/30 08:07:50;;;;;;;4.93;2.72;;;27.60;99.90;;;;;;6152568;23;20060;-71
2022/07/30 08:10:16;;;;;;;7.68;3.10;;;27.50;99.90;;;;;;6177551;23;20778;-72
2022/07/30 08:12:42;;;;;;;4.50;2.67;;;27.70;99.90;;;;;;6152727;23;20005;-71
2022/07/30 08:15:08;;;;;;;8.38;2.65;;;27.90;99.90;;;;;;6178100;23;20464;-72
2022/07/30 08:17:40;;;;;;;6.72;2.90;;;27.80;99.90;;;;;;6179447;23;20464;-72
2022/07/30 08:20:07;;;;;;;6.88;3.03;;;27.80;99.90;;;;;;6150762;23;20017;-72
2022/07/30 08:22:33;;;;;;;5.20;2.95;;;27.80;99.90;;;;;;6180124;23;20075;-72
2022/07/30 08:24:59;;;;;;;7.95;3.13;;;27.90;99.90;;;;;;6154293;23;20441;-72
2022/07/30 08:27:25;;;;;;;4.90;2.60;;;27.80;99.90;;;;;;6179345;23;20325;-73
2022/07/30 08:29:51;;;;;;;6.45;2.88;;;27.70;99.90;;;;;;6153360;23;20010;-71
2022/07/30 08:32:16;;;;;;;5.88;3.22;;;27.70;99.90;;;;;;6179790;23;20017;-71
2022/07/30 08:34:42;;;;;;;9.80;3.08;;;27.80;99.90;;;;;;6181170;23;20024;-73
2022/07/30 08:37:09;;;;;;;8.45;3.00;;;27.90;99.90;;;;;;6179983;23;20135;-72
2022/07/30 08:39:35;;;;;;;7.38;2.85;;;28.30;99.90;;;;;;6154279;23;20072;-72
2022/07/30 08:42:03;;;;;;;7.43;3.50;;;28.30;99.90;;;;;;6153697;23;20050;-72
2022/07/30 08:44:29;;;;;;;5.82;2.55;;;28.30;99.90;;;;;;6179185;23;20017;-73
2022/07/30 08:46:57;;;;;;;8.50;3.00;;;29.20;99.90;;;;;;6180858;23;20041;-73
2022/07/30 08:49:23;;;;;;;7.40;2.95;;;29.90;99.90;;;;;;6179041;23;20485;-72
2022/07/30 08:51:50;;;;;;;5.75;3.13;;;30.20;99.90;;;;;;6180791;23;20016;-72
2022/07/30 08:54:18;;;;;;;12.05;3.20;;;31.70;99.90;;;;;;6179334;23;20024;-72
2022/07/30 08:56:44;;;;;;;5.22;2.95;;;31.20;99.90;;;;;;6154375;23;20464;-72
2022/07/30 08:59:10;;;;;;;7.45;3.10;;;31.50;99.90;;;;;;6179364;23;20018;-72
2022/07/30 09:01:36;;;;;;;6.60;2.80;;;32.00;99.90;;;;;;6180281;23;20009;-72
2022/07/30 09:04:02;;;;;;;6.68;3.13;;;32.10;99.90;;;;;;6180927;23;20033;-73
2022/07/30 09:06:28;;;;;;;6.00;2.63;;;32.40;99.90;;;;;;6153602;23;20036;-72
2022/07/30 09:08:54;;;;;;;7.05;2.42;;;32.10;99.90;;;;;;6154374;23;20374;-74
2022/07/30 09:11:21;;;;;;;6.53;2.83;;;30.80;99.90;;;;;;6152655;23;20025;-71
2022/07/30 09:13:47;;;;;;;4.75;2.70;;;30.60;99.90;;;;;;6181251;23;20005;-72
2022/07/30 09:16:21;;;;;;;5.80;2.67;;;30.50;99.90;;;;;;6179344;23;20028;-72
2022/07/30 09:18:48;;;;;;;7.63;2.40;;;30.40;99.90;;;;;;6180965;23;20013;-72
2022/07/30 09:21:18;;;;;;;5.45;2.63;;;30.40;99.90;;;;;;6153800;23;20025;-72
2022/07/30 09:24:05;;;;;;;5.53;2.30;;;30.40;99.90;;;;;;6153708;23;20027;-72
2022/07/30 09:26:50;;;;;;;5.60;2.67;;;30.20;99.90;;;;;;6152978;23;20441;-72
2022/07/30 09:29:21;;;;;;;6.93;2.75;;;30.50;99.90;;;;;;6152464;23;20021;-73
2022/07/30 09:32:01;;;;;;;8.02;2.50;;;30.40;99.90;;;;;;6180614;23;20005;-72
2022/07/30 09:34:34;;;;;;;5.55;2.97;;;29.90;99.90;;;;;;6152294;23;20010;-72
2022/07/30 09:37:21;;;;;;;8.00;3.10;;;29.80;99.90;;;;;;6179831;23;20115;-72
2022/07/30 09:39:47;;;;;;;6.38;2.50;;;29.90;99.90;;;;;;6178471;23;20019;-72
2022/07/30 09:42:19;;;;;;;7.20;2.55;;;30.10;99.90;;;;;;6177805;23;20096;-73
2022/07/30 09:44:45;;;;;;;4.72;2.70;;;30.70;99.90;;;;;;6179442;23;20028;-72
2022/07/30 09:47:31;;;;;;;7.47;2.70;;;30.40;99.90;;;;;;6177830;23;20048;-72
2022/07/30 09:50:10;;;;;;;4.55;2.47;;;30.40;99.90;;;;;;6153794;23;20017;-72
2022/07/30 09:52:38;;;;;;;5.57;2.30;;;29.90;99.90;;;;;;6178555;23;20014;-72
2022/07/30 09:55:04;;;;;;;6.28;2.58;;;29.90;99.90;;;;;;6178120;23;20005;-72
2022/07/30 09:57:30;;;;;;;5.15;2.60;;;30.10;99.90;;;;;;6179694;23;20109;-70
2022/07/30 09:59:57;;;;;;;5.93;2.60;;;30.20;99.90;;;;;;6153089;23;20047;-71
2022/07/30 10:02:30;;;;;;;5.13;2.75;;;30.30;99.90;;;;;;6177960;23;20377;-72
2022/07/30 10:05:20;;;;;;;6.85;2.70;;;30.50;99.90;;;;;;6152090;23;20059;-72
2022/07/30 10:07:50;;;;;;;6.45;2.63;;;30.90;99.90;;;;;;6185200;23;20020;-71
2022/07/30 10:10:21;;;;;;;5.63;3.22;;;31.50;99.80;;;;;;6177170;23;20334;-72
2022/07/30 10:13:10;;;;;;;6.32;4.10;;;31.80;99.50;;;;;;6152793;23;20099;-72
2022/07/30 10:15:36;;;;;;;3.88;2.50;;;31.50;98.80;;;;;;6178467;23;20454;-71
2022/07/30 10:18:04;;;;;;;4.95;2.22;;;32.30;98.00;;;;;;6152083;23;20039;-71
2022/07/30 10:20:31;;;;;;;6.78;2.70;;;32.20;96.50;;;;;;6191425;23;20009;-72
2022/07/30 10:22:57;;;;;;;5.28;2.05;;;31.70;97.00;;;;;;6178871;23;20025;-72
2022/07/30 10:25:25;;;;;;;3.85;1.73;;;31.60;96.80;;;;;;6127252;23;20505;-72
2022/07/30 10:27:52;;;;;;;3.85;2.00;;;31.20;97.10;;;;;;6152461;23;20433;-72
2022/07/30 10:30:18;;;;;;;4.78;2.00;;;31.40;97.60;;;;;;6177534;23;20048;-72
2022/07/30 10:32:45;;;;;;;3.85;1.92;;;30.80;98.10;;;;;;6152842;23;20006;-71
2022/07/30 10:35:12;;;;;;;4.38;2.13;;;31.10;97.90;;;;;;6178028;23;20063;-72
2022/07/30 10:37:43;;;;;;;3.22;1.80;;;32.10;97.60;;;;;;6179287;23;20063;-72
2022/07/30 10:40:16;;;;;;;4.93;2.00;;;31.90;96.30;;;;;;6151455;23;20009;-73
2022/07/30 10:42:57;;;;;;;4.50;1.92;;;31.70;96.90;;;;;;6179666;23;20020;-72
2022/07/30 10:45:46;;;;;;;4.80;2.27;;;31.70;97.10;;;;;;6151710;23;20024;-71
2022/07/30 10:48:12;;;;;;;5.57;2.47;;;31.80;96.50;;;;;;6178160;23;20245;-72
2022/07/30 10:50:55;;;;;;;5.93;2.45;;;31.50;97.20;;;;;;6179357;23;20021;-72
2022/07/30 10:53:37;;;;;;;5.68;2.10;;;31.30;97.60;;;;;;6151581;23;20036;-71
2022/07/30 10:56:18;;;;;;;3.30;2.00;;;31.90;97.30;;;;;;6151141;23;20013;-74
2022/07/30 10:59:02;;;;;;;5.65;2.22;;;32.50;96.50;;;;;;6152326;23;20037;-72
2022/07/30 11:01:46;;;;;;;5.18;2.53;;;32.50;96.20;;;;;;6152138;23;20012;-73
2022/07/30 11:04:37;;;;;;;4.00;2.10;;;33.00;96.30;;;;;;6179707;23;20017;-73
2022/07/30 11:07:30;;;;;;;4.70;2.03;;;33.60;95.40;;;;;;6152331;23;20031;-73
2022/07/30 11:10:00;;;;;;;6.22;2.15;;;32.40;95.90;;;;;;6174186;23;20441;-73
2022/07/30 11:12:41;;;;;;;4.63;2.08;;;32.30;96.20;;;;;;6178920;23;20009;-74
2022/07/30 11:15:11;;;;;;;5.10;2.30;;;33.00;96.10;;;;;;6179185;23;20012;-73
2022/07/30 11:17:57;;;;;;;5.93;2.47;;;33.20;96.30;;;;;;6179757;23;20005;-74
2022/07/30 11:20:23;;;;;;;9.38;2.05;;;32.50;96.00;;;;;;6151957;23;20017;-74
2022/07/30 11:22:49;;;;;;;4.38;2.20;;;33.20;95.60;;;;;;6152504;23;20009;-75
2022/07/30 11:25:21;;;;;;;3.85;2.35;;;33.10;95.70;;;;;;6178590;23;20050;-73
2022/07/30 11:27:49;;;;;;;5.70;2.10;;;32.30;96.50;;;;;;6152599;23;20079;-73
2022/07/30 11:30:14;;;;;;;5.35;2.50;;;32.40;96.50;;;;;;6178546;23;20021;-74
2022/07/30 11:32:51;;;;;;;5.63;2.30;;;32.10;96.90;;;;;;6152476;23;20334;-73
2022/07/30 11:35:22;;;;;;;6.53;2.40;;;31.30;97.70;;;;;;6178415;23;20437;-73
2022/07/30 11:38:14;;;;;;;4.63;2.30;;;31.80;97.40;;;;;;6152166;23;20009;-73
2022/07/30 11:40:48;;;;;;;4.07;1.80;;;31.50;97.10;;;;;;6151786;23;20431;-73
2022/07/30 11:43:24;;;;;;;3.88;2.40;;;31.30;97.80;;;;;;6151291;23;20013;-73
2022/07/30 11:46:03;;;;;;;4.55;2.40;;;31.50;97.90;;;;;;6152700;23;20318;-74
2022/07/30 11:48:30;;;;;;;4.90;2.38;;;32.20;96.80;;;;;;6152058;23;20087;-74
2022/07/30 11:50:56;;;;;;;5.20;2.33;;;32.30;96.80;;;;;;6191520;23;20372;-74
2022/07/30 11:53:23;;;;;;;4.70;2.08;;;32.50;96.70;;;;;;6178811;23;20397;-74
2022/07/30 11:55:54;;;;;;;7.25;2.60;;;32.30;97.30;;;;;;6153833;23;20013;-73
2022/07/30 11:58:26;;;;;;;6.15;2.20;;;32.80;97.20;;;;;;6182094;23;20028;-74
2022/07/30 12:00:54;;;;;;;9.48;3.05;;;33.00;97.10;;;;;;6156452;23;20017;-73
2022/07/30 12:03:22;;;;;;;5.10;2.30;;;33.60;96.60;;;;;;6156206;23;20021;-73
2022/07/30 12:05:49;;;;;;;5.88;2.50;;;32.20;95.90;;;;;;6183188;23;20045;-74
2022/07/30 12:08:15;;;;;;;8.32;2.40;;;32.30;97.20;;;;;;6182028;23;20046;-73
2022/07/30 12:10:42;;;;;;;7.80;2.67;;;31.70;97.70;;;;;;6157175;23;20017;-73
2022/07/30 12:13:09;;;;;;;3.78;2.13;;;31.90;97.90;;;;;;6182031;23;20330;-72
2022/07/30 12:15:37;;;;;;;5.45;2.40;;;31.20;98.30;;;;;;6156234;23;20053;-73
2022/07/30 12:18:03;;;;;;;5.82;2.67;;;30.50;99.90;;;;;;6147844;23;20020;-73
2022/07/30 12:20:30;;;;;;;6.88;2.78;;;30.50;99.70;;;;;;6180992;23;20013;-74
2022/07/30 12:22:56;;;;;;;5.03;2.80;;;30.60;99.60;;;;;;6142579;23;20040;-74
2022/07/30 12:25:23;;;;;;;3.28;2.42;;;30.60;99.50;;;;;;6182228;23;21208;-74
2022/07/30 12:27:49;;;;;;;5.28;2.92;;;30.60;99.80;;;;;;6156345;23;20017;-74
2022/07/30 12:30:16;;;;;;;5.10;2.35;;;30.80;99.90;;;;;;6154527;23;20345;-73
2022/07/30 12:32:43;;;;;;;4.43;2.20;;;30.40;99.70;;;;;;6155936;23;20429;-74
2022/07/30 12:35:10;;;;;;;6.30;2.40;;;30.60;99.90;;;;;;6181931;23;20012;-73
2022/07/30 12:37:36;;;;;;;6.68;2.90;;;31.30;99.20;;;;;;6182655;23;20063;-73
2022/07/30 12:40:06;;;;;;;4.53;2.15;;;32.50;98.10;;;;;;6182914;23;20037;-74
2022/07/30 12:42:32;;;;;;;5.38;2.80;;;32.90;97.70;;;;;;6166162;23;20084;-74
2022/07/30 12:44:58;;;;;;;5.03;2.63;;;32.10;98.10;;;;;;6182287;23;20013;-74
2022/07/30 12:47:29;;;;;;;6.20;2.60;;;31.80;98.60;;;;;;6180918;23;20330;-73
2022/07/30 12:49:57;;;;;;;5.90;2.20;;;31.90;98.90;;;;;;6182693;23;20013;-74
2022/07/30 12:52:33;;;;;;;6.20;2.33;;;32.10;98.60;;;;;;6180844;23;20080;-73
2022/07/30 12:55:03;;;;;;;4.03;2.20;;;32.30;98.10;;;;;;6182104;23;20005;-73
2022/07/30 12:57:52;;;;;;;4.10;1.90;;;33.40;97.20;;;;;;6183673;23;20035;-73